Portada
METAR-TAF:

METAR-TAF

Aeroports :

Koror, Babeldaob, Palau

latitud: 07-22N, longitud: 134-32E, altitud: 54 m

Observació

L'informe es va fer fa 53 minuts, a les 02:50 UTC
Vent 3 kt del Oest/Sud-Oest
Temperatura 30°C
Humitat 66%
Pressió 1011 hPa
Visibilitat: 24.1 km
Escasses núvols a una alçada de 1000 ft
Núvols disperses a una alçada de 1600 ft
Cel ennuvolat a una alçada de 12000 ft
Cel ennuvolat a una alçada de 30000 ft

METAR: PTRO 180250Z 24003KT 15SM FEW010 SCT016 BKN120 BKN300 30/23 A2985

Hora: 12:43 (03:43 UTC)

Pronòstic

L'informe es va fer fa 4 hores i 4 minuts, a les 23:39 UTC
Pronòstic vàlid del 18 a les 00 UTC al 18 a les 24 UTC
Vent 8 kt del Oest
Visibilitat: 10 km
Núvols disperses a una alçada de 1600 ft
Cel ennuvolat a una alçada de 12000 ft
xàfecs en les proximitats

TAF: PTRO 172339Z 1800/1824 28008KT P6SM VCSH SCT016 BKN120

Observacions i pronòstics meteorològics de més de 4000 aeroports (METAR i TAF).

Les estacions disponibles són els punts grocs i vermells al mapa.

Posi el ratolí al punt desitjat per veure el nom de l'estació.

Feu clic per veure les observacions i els pronòstics meteorològics.

Per canviar el mapa: feu clic els botons verds amb una creu de color negre per apropar; al botó verd amb un guió per allunyar la imatge; o en les fletxes verdes per a mapes adjacents.


METAR-TAF: